Time;durP1;ratioP1;P1;durP2;ratioP2;P2;SDS_P1;SDS_P2;PMS_P1;PMS_P2;Temp;Humidity;BMP_temperature;BMP_pressure;BME280_temperature;BME280_humidity;BME280_pressure;Samples;Min_cycle;Max_cycle;Signal;HPM_P1;HPM_P2
2022/10/29 00:01:49;;;;;;;32.37;13.17;;;;;;;-141.97;60.98;47580.59;5075133;28;20224;-80
2022/10/29 00:04:14;;;;;;;36.33;15.23;;;;;;;-141.97;61.97;47617.09;5075205;28;20601;-80
2022/10/29 00:06:39;;;;;;;42.87;19.57;;;;;;;-141.97;61.97;47599.81;5075363;28;20180;-81
2022/10/29 00:09:05;;;;;;;25.20;12.93;;;;;;;-141.97;61.83;47582.50;5074795;28;20292;-80
2022/10/29 00:11:30;;;;;;;26.43;11.87;;;;;;;-141.97;62.81;47634.41;5074816;28;20183;-80
2022/10/29 00:13:59;;;;;;;22.20;11.53;;;;;;;-141.97;63.27;47672.84;5074555;28;20651;-80
2022/10/29 00:16:33;;;;;;;23.17;11.20;;;;;;;-141.97;63.07;47697.84;5074561;28;20334;-81
2022/10/29 00:18:58;;;;;;;23.97;11.43;;;;;;;-141.97;62.82;47569.06;5074627;28;20169;-80
2022/10/29 00:21:24;;;;;;;24.17;11.60;;;;;;;-141.97;62.61;47559.44;5074667;28;20177;-81
2022/10/29 00:23:50;;;;;;;21.23;10.90;;;;;;;-141.97;64.08;47594.03;5074719;28;20176;-81
2022/10/29 00:26:18;;;;;;;24.87;12.03;;;;;;;-141.97;64.80;47588.28;5074575;28;20251;-81
2022/10/29 00:28:43;;;;;;;28.00;13.33;;;;;;;-141.97;65.15;47590.19;5074723;28;20220;-81
2022/10/29 00:31:13;;;;;;;26.53;12.93;;;;;;;-141.97;65.62;47570.97;5074533;28;20731;-80
2022/10/29 00:33:38;;;;;;;22.17;10.97;;;;;;;-141.97;64.54;47561.38;5073952;28;20172;-80
2022/10/29 00:36:06;;;;;;;27.37;12.30;;;;;;;-141.97;64.94;47572.91;5074566;28;20204;-80
2022/10/29 00:38:33;;;;;;;27.23;12.40;;;;;;;-141.97;64.55;47561.38;5056385;28;20188;-80
2022/10/29 00:40:59;;;;;;;25.13;12.40;;;;;;;-141.97;65.25;47582.50;5074396;28;20165;-81
2022/10/29 00:43:25;;;;;;;24.63;12.10;;;;;;;-141.97;65.13;47551.75;5074305;28;20233;-81
2022/10/29 00:45:58;;;;;;;22.73;12.03;;;;;;;-141.97;64.91;47734.34;5074235;28;20632;-80
2022/10/29 00:48:28;;;;;;;25.77;12.43;;;;;;;-141.97;65.18;47584.44;5074035;28;20164;-80
2022/10/29 00:50:56;;;;;;;21.53;12.27;;;;;;;-141.97;64.95;47628.63;5074005;28;20157;-80
2022/10/29 00:53:27;;;;;;;38.13;20.33;;;;;;;-141.97;64.63;47569.06;5056102;28;20173;-81
2022/10/29 00:55:53;;;;;;;31.83;17.00;;;;;;;-141.97;64.70;47553.69;5073895;28;20164;-81
2022/10/29 00:58:19;;;;;;;30.57;16.93;;;;;;;-141.97;64.43;47547.91;5073894;28;20168;-80
2022/10/29 01:00:45;;;;;;;38.10;19.33;;;;;;;-141.97;64.57;47569.06;5074322;28;20259;-81
2022/10/29 01:03:10;;;;;;;49.00;24.80;;;;;;;-141.97;64.78;47570.97;5074252;28;20750;-80
2022/10/29 01:05:36;;;;;;;48.10;22.60;;;;;;;-141.97;64.79;47597.88;5073797;28;20183;-80
2022/10/29 01:08:03;;;;;;;40.20;19.77;;;;;;;-141.97;64.48;47590.19;5073996;28;20179;-80
2022/10/29 01:10:34;;;;;;;30.00;16.80;;;;;;;-141.97;64.71;47580.59;5074128;28;20188;-81
2022/10/29 01:13:32;;;;;;;24.30;13.83;;;;;;;-141.97;64.18;47601.72;5074076;28;20169;-80
2022/10/29 01:16:29;;;;;;;22.80;12.73;;;;;;;-141.97;64.17;47586.34;5073518;28;20252;-80
2022/10/29 01:19:23;;;;;;;26.77;13.67;;;;;;;-141.97;63.92;47592.13;5011747;28;20710;-80
2022/10/29 01:22:00;;;;;;;29.30;14.63;;;;;;;-141.97;64.25;47563.28;5011823;28;20185;-81
2022/10/29 01:24:32;;;;;;;33.87;18.63;;;;;;;-141.97;65.12;47588.28;5011620;28;20194;-81
2022/10/29 01:27:26;;;;;;;25.73;13.37;;;;;;;-141.97;65.92;47582.50;5011673;28;20179;-81
2022/10/29 01:30:13;;;;;;;22.97;12.07;;;;;;;-141.97;66.37;47584.44;4953565;29;20204;-81
2022/10/29 01:32:41;;;;;;;20.93;11.83;;;;;;;-141.97;66.43;47597.88;4953198;29;20184;-81
2022/10/29 01:35:18;;;;;;;25.17;12.30;;;;;;;-141.97;66.01;47553.69;4953094;29;20228;-81
2022/10/29 01:37:52;;;;;;;21.90;11.90;;;;;;;-141.97;66.42;47561.38;4952864;29;20216;-81
2022/10/29 01:40:37;;;;;;;26.57;12.27;;;;;;;-141.97;67.26;47574.81;4953497;29;20673;-81
2022/10/29 01:43:39;;;;;;;27.20;12.63;;;;;;;-141.97;67.91;47567.13;4953273;29;20192;-81
2022/10/29 01:46:11;;;;;;;26.10;12.40;;;;;;;-141.97;68.10;47630.56;4934039;29;20213;-80
2022/10/29 01:48:42;;;;;;;21.57;12.23;;;;;;;-141.97;68.43;47601.72;4917897;29;20366;-80
2022/10/29 01:51:17;;;;;;;24.80;12.17;;;;;;;-141.97;68.16;47599.81;4933871;29;20201;-81
2022/10/29 01:53:44;;;;;;;23.40;12.00;;;;;;;-141.97;67.61;47578.66;4933469;29;20688;-80
2022/10/29 01:56:09;;;;;;;27.10;11.87;;;;;;;-141.97;67.96;47572.91;4944814;29;20727;-80
2022/10/29 01:58:35;;;;;;;22.07;11.67;;;;;;;-141.97;67.91;47572.91;4952722;29;20208;-80
2022/10/29 02:01:10;;;;;;;24.83;12.90;;;;;;;-141.97;68.83;47594.03;4952519;29;20199;-81
2022/10/29 02:03:53;;;;;;;22.03;12.10;;;;;;;-141.97;69.32;47665.16;4952845;29;20704;-81
2022/10/29 02:06:43;;;;;;;24.80;12.37;;;;;;;-141.97;70.38;47572.91;4960421;28;20679;-82
2022/10/29 02:09:22;;;;;;;25.57;12.47;;;;;;;-141.97;70.53;47567.13;4972000;28;20430;-82
2022/10/29 02:11:58;;;;;;;21.43;11.87;;;;;;;-141.97;70.27;47572.91;4955920;28;21006;-80
2022/10/29 02:14:34;;;;;;;25.17;12.40;;;;;;;-141.97;70.01;47572.91;4974766;28;20180;-81
2022/10/29 02:17:01;;;;;;;21.63;10.60;;;;;;;-141.97;70.07;47553.69;4972990;28;20235;-81
2022/10/29 02:19:34;;;;;;;23.23;11.20;;;;;;;-141.97;70.56;47569.06;4972145;28;20246;-80
2022/10/29 02:22:00;;;;;;;22.60;10.97;;;;;;;-141.97;70.82;47597.88;4973952;28;20459;-81
2022/10/29 02:24:25;;;;;;;24.17;11.97;;;;;;;-141.97;71.44;47557.53;5073133;28;20210;-81
2022/10/29 02:26:51;;;;;;;20.53;11.47;;;;;;;-141.97;71.34;47620.94;5072613;28;20222;-80
2022/10/29 02:29:16;;;;;;;21.77;11.60;;;;;;;-141.97;71.57;47609.41;5072809;28;20202;-81
2022/10/29 02:31:42;;;;;;;26.10;12.70;;;;;;;-141.97;71.10;47590.19;5072882;28;20650;-80
2022/10/29 02:34:07;;;;;;;27.57;13.93;;;;;;;-141.97;71.66;47599.81;5072625;28;20226;-81
2022/10/29 02:36:33;;;;;;;31.30;13.97;;;;;;;-141.97;71.03;47572.91;5072700;28;20239;-81
2022/10/29 02:38:58;;;;;;;27.30;14.00;;;;;;;-141.97;71.65;47526.75;5072710;28;20310;-81
2022/10/29 02:41:24;;;;;;;26.47;14.03;;;;;;;-141.97;71.46;47572.91;5073099;28;20200;-80
2022/10/29 02:43:49;;;;;;;29.73;14.60;;;;;;;-141.97;71.08;47569.06;5072478;28;20188;-81
2022/10/29 02:46:18;;;;;;;28.63;14.70;;;;;;;-141.97;71.68;47605.56;5072343;28;20230;-81
2022/10/29 02:48:44;;;;;;;27.00;15.17;;;;;;;-141.97;71.89;47586.34;5072620;28;20621;-80
2022/10/29 02:51:10;;;;;;;31.00;15.13;;;;;;;-141.97;71.85;47563.28;5072543;28;20410;-80
2022/10/29 02:53:35;;;;;;;25.93;14.00;;;;;;;-141.97;70.87;47588.28;5072401;28;20244;-81
2022/10/29 02:56:01;;;;;;;26.47;14.50;;;;;;;-141.97;70.57;47570.97;5072537;28;20172;-80
2022/10/29 02:58:26;;;;;;;35.83;15.50;;;;;;;-141.97;69.89;47619.03;5054805;28;20169;-80
2022/10/29 03:00:52;;;;;;;30.40;15.40;;;;;;;-141.97;69.99;47607.50;5072350;28;20544;-81
2022/10/29 03:03:19;;;;;;;32.70;15.00;;;;;;;-141.97;70.27;47584.44;5072571;28;20731;-81
2022/10/29 03:05:44;;;;;;;32.97;16.33;;;;;;;-141.97;70.88;47592.13;5072341;28;20165;-81
2022/10/29 03:08:09;;;;;;;28.33;15.20;;;;;;;-141.97;72.58;47576.75;5072251;28;20502;-80
2022/10/29 03:10:35;;;;;;;29.10;14.23;;;;;;;-141.97;74.09;47565.22;5072417;28;20183;-81
2022/10/29 03:13:01;;;;;;;30.17;15.43;;;;;;;-141.97;73.82;47553.69;5075274;28;20336;-81
2022/10/29 03:15:26;;;;;;;32.70;14.90;;;;;;;-141.97;73.80;47588.28;5075930;28;20633;-81
2022/10/29 03:17:52;;;;;;;28.13;15.20;;;;;;;-141.97;73.82;47567.13;5075897;28;20277;-81
2022/10/29 03:20:17;;;;;;;31.43;15.83;;;;;;;-141.97;75.00;47592.13;5076030;28;20563;-81
2022/10/29 03:22:43;;;;;;;31.23;16.90;;;;;;;-141.97;75.79;47597.88;5075918;28;20203;-81
2022/10/29 03:25:09;;;;;;;35.47;17.20;;;;;;;-141.97;75.31;47594.03;5075824;28;20228;-80
2022/10/29 03:27:42;;;;;;;28.37;15.20;;;;;;;-141.97;75.13;47611.34;5075758;28;20172;-80
2022/10/29 03:30:09;;;;;;;30.80;15.93;;;;;;;-141.97;75.16;47588.28;5075731;28;20179;-81
2022/10/29 03:32:38;;;;;;;27.70;14.13;;;;;;;-141.97;74.81;47599.81;5075435;28;20410;-81
2022/10/29 03:35:04;;;;;;;28.93;14.47;;;;;;;-141.97;74.20;47595.97;5075294;28;21020;-81
2022/10/29 03:37:30;;;;;;;26.90;12.77;;;;;;;-141.97;74.61;47549.84;5075697;28;20458;-81
2022/10/29 03:39:55;;;;;;;26.27;12.57;;;;;;;-141.97;74.36;47584.44;5075614;28;20168;-80
2022/10/29 03:42:20;;;;;;;28.47;12.37;;;;;;;-141.97;73.88;47607.50;5075483;28;20203;-81
2022/10/29 03:44:46;;;;;;;24.43;12.53;;;;;;;-141.97;73.53;47549.84;5075791;28;20219;-81
2022/10/29 03:47:11;;;;;;;23.23;11.50;;;;;;;-141.97;73.36;47590.19;5075016;28;20169;-80
2022/10/29 03:49:36;;;;;;;23.97;12.73;;;;;;;-141.97;73.22;47588.28;5075225;28;20258;-80
2022/10/29 03:52:02;;;;;;;26.17;12.07;;;;;;;-141.97;73.50;47580.59;5075375;28;20534;-81
2022/10/29 03:54:27;;;;;;;30.10;14.90;;;;;;;-141.97;73.67;47595.97;5075208;28;20187;-81
2022/10/29 03:56:52;;;;;;;28.37;15.43;;;;;;;-141.97;73.22;47569.06;5075007;28;20275;-80
2022/10/29 03:59:18;;;;;;;29.13;13.33;;;;;;;-141.97;72.93;47599.81;5075214;28;20621;-80
2022/10/29 04:01:43;;;;;;;26.87;14.47;;;;;;;-141.97;72.44;47615.19;5075515;28;20207;-81
2022/10/29 04:04:09;;;;;;;31.10;14.03;;;;;;;-141.97;72.15;47561.38;5074930;28;20165;-81
2022/10/29 04:06:34;;;;;;;26.17;14.23;;;;;;;-141.97;72.13;47559.44;5075314;28;20187;-80
2022/10/29 04:09:00;;;;;;;35.23;17.20;;;;;;;-141.97;71.83;47584.44;5075310;28;20613;-81
2022/10/29 04:11:25;;;;;;;36.23;17.00;;;;;;;-141.97;72.23;47594.03;5074935;28;20222;-81
2022/10/29 04:13:52;;;;;;;38.03;17.67;;;;;;;-141.97;72.00;47607.50;5074831;28;20175;-80
2022/10/29 04:16:17;;;;;;;31.83;16.37;;;;;;;-141.97;72.21;47576.75;5056669;28;20193;-80
2022/10/29 04:18:42;;;;;;;52.47;24.73;;;;;;;-141.97;72.32;47599.81;5074801;28;20411;-80
2022/10/29 04:21:08;;;;;;;43.67;22.40;;;;;;;-141.97;71.89;47613.25;5074605;28;20569;-80
2022/10/29 04:23:33;;;;;;;37.43;20.20;;;;;;;-141.97;71.88;47584.44;5074439;28;20161;-80
2022/10/29 04:25:59;;;;;;;46.93;23.33;;;;;;;-141.97;71.51;47622.88;5074561;28;20173;-80
2022/10/29 04:28:25;;;;;;;44.37;22.17;;;;;;;-141.97;71.79;47595.97;5074478;28;20656;-82
2022/10/29 04:30:51;;;;;;;25.50;13.70;;;;;;;-141.97;71.57;47576.75;5074551;28;20168;-81
2022/10/29 04:33:16;;;;;;;35.60;16.10;;;;;;;-141.97;71.19;47619.03;5074665;28;20160;-81
2022/10/29 04:35:42;;;;;;;36.50;17.67;;;;;;;-141.97;71.19;47603.66;5074387;28;20538;-81
2022/10/29 04:38:11;;;;;;;38.70;19.90;;;;;;;-141.97;71.45;47592.13;5074295;28;20196;-82
2022/10/29 04:40:37;;;;;;;37.33;18.57;;;;;;;-141.97;71.72;47580.59;5074375;28;20175;-81
2022/10/29 04:43:02;;;;;;;38.40;17.47;;;;;;;-141.97;71.48;47567.13;5074221;28;20490;-81
2022/10/29 04:45:28;;;;;;;33.70;15.37;;;;;;;-141.97;72.22;47603.66;5074303;28;20169;-81
2022/10/29 04:48:05;;;;;;;28.63;13.97;;;;;;;-141.97;71.89;47597.88;5074517;28;20527;-81
2022/10/29 04:50:31;;;;;;;30.50;13.87;;;;;;;-141.97;71.90;47628.63;5074219;28;20172;-80
2022/10/29 04:53:06;;;;;;;37.03;19.80;;;;;;;-141.97;72.00;47574.81;5074139;28;20395;-81
2022/10/29 04:55:36;;;;;;;43.43;19.93;;;;;;;-141.97;72.01;47563.28;5074427;28;20525;-80
2022/10/29 04:58:01;;;;;;;39.53;20.50;;;;;;;-141.97;71.87;47582.50;5074225;28;20458;-81
2022/10/29 05:00:26;;;;;;;30.20;16.50;;;;;;;-141.97;72.90;47567.13;5074096;28;20975;-81
2022/10/29 05:02:52;;;;;;;31.77;14.67;;;;;;;-141.97;73.36;47578.66;5074148;28;20169;-81
2022/10/29 05:05:19;;;;;;;29.40;13.47;;;;;;;-141.97;73.80;47570.97;5074083;28;20256;-82
2022/10/29 05:07:45;;;;;;;24.00;12.67;;;;;;;-141.97;74.74;47626.72;5073995;28;20160;-82
2022/10/29 05:10:12;;;;;;;21.10;11.63;;;;;;;-141.97;75.10;47605.56;5073820;28;20938;-81
2022/10/29 05:12:37;;;;;;;22.77;12.13;;;;;;;-141.97;76.63;47586.34;5073528;28;20195;-81
2022/10/29 05:15:04;;;;;;;26.63;13.43;;;;;;;-141.97;76.42;47599.81;5073028;28;20415;-81
2022/10/29 05:17:29;;;;;;;24.23;11.87;;;;;;;-141.97;75.78;47549.84;5071099;28;20210;-81
2022/10/29 05:19:55;;;;;;;25.63;13.10;;;;;;;-141.97;75.37;47584.44;5072598;28;20779;-82
2022/10/29 05:22:20;;;;;;;23.23;12.03;;;;;;;-141.97;74.78;47570.97;5073883;28;20165;-81
2022/10/29 05:24:46;;;;;;;22.70;12.40;;;;;;;-141.97;74.26;47569.06;5074067;28;20176;-82
2022/10/29 05:27:11;;;;;;;27.13;11.67;;;;;;;-141.97;74.13;47588.28;5073070;28;20279;-81
2022/10/29 05:29:36;;;;;;;29.40;12.53;;;;;;;-141.97;73.86;47628.63;5072834;28;20207;-81
2022/10/29 05:32:05;;;;;;;24.17;11.80;;;;;;;-141.97;73.82;47609.41;5072032;28;20205;-81
2022/10/29 05:34:30;;;;;;;30.23;12.07;;;;;;;-141.97;73.36;47559.44;5071863;28;20231;-81
2022/10/29 05:36:56;;;;;;;24.93;12.07;;;;;;;-141.97;73.97;47570.97;5073200;28;20549;-81
2022/10/29 05:39:21;;;;;;;23.30;12.20;;;;;;;-141.97;73.37;47534.44;5073182;28;20168;-82
2022/10/29 05:41:46;;;;;;;28.37;13.70;;;;;;;-141.97;73.56;47584.44;5072148;28;20247;-82
2022/10/29 05:44:12;;;;;;;28.93;14.73;;;;;;;-141.97;73.27;47580.59;5073723;28;20629;-81
2022/10/29 05:46:38;;;;;;;29.60;13.30;;;;;;;-141.97;72.99;47613.25;5055253;28;20176;-82
2022/10/29 05:49:03;;;;;;;28.63;13.40;;;;;;;-141.97;72.70;47567.13;5073602;28;20647;-81
2022/10/29 05:51:28;;;;;;;23.43;12.03;;;;;;;-141.97;72.80;47586.34;5073298;28;20165;-81
2022/10/29 05:53:54;;;;;;;24.40;11.80;;;;;;;-141.97;72.46;47578.66;5073055;28;20629;-82
2022/10/29 05:56:19;;;;;;;24.23;11.93;;;;;;;-141.97;71.80;47607.50;5073286;28;20218;-81
2022/10/29 05:58:48;;;;;;;23.93;12.47;;;;;;;-141.97;72.11;47565.22;5073675;28;20648;-82
2022/10/29 06:01:14;;;;;;;21.87;11.83;;;;;;;-141.97;71.88;47570.97;5073133;28;20487;-81
2022/10/29 06:03:39;;;;;;;23.17;12.13;;;;;;;-141.97;71.80;47582.50;5072934;28;20411;-81
2022/10/29 06:06:05;;;;;;;23.57;13.20;;;;;;;-141.97;72.13;47603.66;5073439;28;20165;-82
2022/10/29 06:08:30;;;;;;;23.27;12.30;;;;;;;-141.97;72.67;47576.75;5055347;28;20167;-82
2022/10/29 06:10:59;;;;;;;26.67;13.60;;;;;;;-141.97;73.25;47570.97;5073075;28;20160;-81
2022/10/29 06:13:25;;;;;;;28.20;13.70;;;;;;;-141.97;73.56;47626.72;5072936;28;20194;-81
2022/10/29 06:15:56;;;;;;;29.20;14.00;;;;;;;-141.97;72.96;47628.63;5073029;28;20431;-81
2022/10/29 06:18:21;;;;;;;22.80;11.77;;;;;;;-141.97;71.82;47588.28;5072841;28;20695;-82
2022/10/29 06:20:47;;;;;;;19.67;11.10;;;;;;;-141.97;71.00;47594.03;5072909;28;20416;-80
2022/10/29 06:23:12;;;;;;;22.00;11.00;;;;;;;-141.97;70.58;47595.97;5072785;28;20214;-81
2022/10/29 06:25:37;;;;;;;20.23;10.57;;;;;;;-141.97;70.56;47642.09;5072193;28;20183;-81
2022/10/29 06:28:05;;;;;;;21.87;10.50;;;;;;;-141.97;68.94;47605.56;5072157;28;20164;-79
2022/10/29 06:30:33;;;;;;;18.03;10.10;;;;;;;-141.97;68.10;47582.50;5072672;28;20207;-79
2022/10/29 06:32:59;;;;;;;25.83;11.13;;;;;;;-141.97;67.06;47615.19;5054481;28;20540;-80
2022/10/29 06:35:24;;;;;;;23.37;10.93;;;;;;;-141.97;67.01;47580.59;5072184;28;20655;-80
2022/10/29 06:37:50;;;;;;;16.87;9.30;;;;;;;-141.97;65.83;47534.44;5073078;28;20200;-81
2022/10/29 06:40:15;;;;;;;15.33;9.00;;;;;;;-141.97;66.46;47592.13;5072809;28;20526;-80
2022/10/29 06:42:42;;;;;;;17.63;9.33;;;;;;;-141.97;67.02;47594.03;5072795;28;20625;-80
2022/10/29 06:45:08;;;;;;;18.00;8.90;;;;;;;-141.97;66.63;47584.44;5072709;28;20165;-80
2022/10/29 06:47:41;;;;;;;20.20;11.17;;;;;;;-141.97;66.02;47547.91;5076731;28;20682;-82
2022/10/29 06:50:09;;;;;;;18.20;10.77;;;;;;;-141.97;65.13;47586.34;5078603;28;20256;-81
2022/10/29 06:52:34;;;;;;;14.97;9.57;;;;;;;-141.97;64.53;47603.66;5077620;28;20173;-81
2022/10/29 06:55:01;;;;;;;18.57;11.87;;;;;;;-141.97;65.04;47580.59;5077671;28;20164;-81
2022/10/29 06:57:27;;;;;;;18.83;11.73;;;;;;;-141.97;63.32;47603.66;5080267;28;20290;-80
2022/10/29 06:59:56;;;;;;;21.53;11.73;;;;;;;-141.97;61.63;47572.91;5080366;28;20173;-81
2022/10/29 07:02:22;;;;;;;17.70;9.80;;;;;;;-141.97;60.56;47595.97;5082386;28;20184;-80
2022/10/29 07:04:48;;;;;;;20.37;11.53;;;;;;;-141.97;59.60;47619.03;5081421;28;20621;-81
2022/10/29 07:07:14;;;;;;;19.43;10.17;;;;;;;-141.97;59.11;47595.97;5064310;28;20172;-81
2022/10/29 07:09:43;;;;;;;25.80;14.23;;;;;;;-141.97;58.00;47582.50;5085332;28;20209;-81
2022/10/29 07:12:08;;;;;;;18.63;10.10;;;;;;;-141.97;57.29;47611.34;5082584;28;20189;-79
2022/10/29 07:14:34;;;;;;;24.50;12.97;;;;;;;-141.97;57.28;47603.66;5083974;28;20183;-81
2022/10/29 07:17:00;;;;;;;22.47;12.20;;;;;;;-141.97;57.08;47592.13;5078556;28;20555;-78
2022/10/29 07:19:25;;;;;;;20.50;12.17;;;;;;;-141.97;57.19;47555.59;5078010;28;20313;-80
2022/10/29 07:21:50;;;;;;;28.47;17.60;;;;;;;-141.97;56.39;47615.19;5077102;28;20718;-79
2022/10/29 07:24:16;;;;;;;23.00;13.77;;;;;;;-141.97;55.22;47561.38;5077609;28;20196;-78
2022/10/29 07:26:43;;;;;;;26.27;15.30;;;;;;;-141.97;54.68;47532.53;5079278;28;20171;-78
2022/10/29 07:29:08;;;;;;;20.27;11.90;;;;;;;-141.97;54.40;47547.91;5078165;28;20163;-80
2022/10/29 07:31:38;;;;;;;17.37;10.80;;;;;;;-141.97;54.25;47586.34;5078116;28;20705;-80
2022/10/29 07:34:04;;;;;;;18.87;9.77;;;;;;;-141.97;52.77;47557.53;5079312;28;20654;-80
2022/10/29 07:36:30;;;;;;;14.87;8.73;;;;;;;-141.97;53.82;47594.03;5077371;28;20208;-81
2022/10/29 07:38:55;;;;;;;14.97;9.10;;;;;;;-141.97;52.86;47580.59;5075465;28;20171;-80
2022/10/29 07:41:24;;;;;;;15.97;8.20;;;;;;;-141.97;51.42;47649.78;5075547;28;20189;-82
2022/10/29 07:43:49;;;;;;;15.90;8.23;;;;;;;-141.97;53.47;47565.22;5075229;28;20184;-79
2022/10/29 07:46:15;;;;;;;13.40;7.67;;;;;;;-141.97;52.81;47588.28;5075459;28;20176;-80
2022/10/29 07:48:40;;;;;;;16.67;8.23;;;;;;;-141.97;52.29;47578.66;5075281;28;20171;-80
2022/10/29 07:51:05;;;;;;;15.03;8.87;;;;;;;-141.97;50.24;47574.81;5075628;28;20255;-80
2022/10/29 07:53:31;;;;;;;14.50;9.70;;;;;;;-141.97;49.61;47569.06;5076498;28;20714;-80
2022/10/29 07:55:57;;;;;;;12.90;8.10;;;;;;;-141.97;49.46;47584.44;5081642;28;20169;-80
2022/10/29 07:58:24;;;;;;;13.00;7.70;;;;;;;-141.97;49.88;47567.13;5077289;28;20161;-79
2022/10/29 08:00:50;;;;;;;13.63;7.40;;;;;;;-141.97;49.62;47549.84;5075064;28;20172;-81
2022/10/29 08:03:15;;;;;;;13.57;8.00;;;;;;;-141.97;49.45;47582.50;5075333;28;20172;-80
2022/10/29 08:05:41;;;;;;;26.97;14.07;;;;;;;-141.97;47.66;47553.69;5056897;28;20651;-82
2022/10/29 08:08:06;;;;;;;13.73;9.03;;;;;;;-141.97;46.86;47559.44;5076341;28;20168;-81
2022/10/29 08:10:33;;;;;;;13.87;9.10;;;;;;;-141.97;46.69;47546.00;5076452;28;20184;-80
2022/10/29 08:13:01;;;;;;;14.67;9.13;;;;;;;-141.97;45.97;47567.13;5075089;28;20171;-81
2022/10/29 08:15:28;;;;;;;16.13;9.53;;;;;;;-141.97;45.33;47549.84;5074681;28;20199;-81
2022/10/29 08:17:54;;;;;;;14.40;8.87;;;;;;;-141.97;45.79;47565.22;5074971;28;20261;-80
2022/10/29 08:20:21;;;;;;;11.53;7.67;;;;;;;-141.97;44.63;47549.84;5074482;28;20177;-80
2022/10/29 08:22:46;;;;;;;16.67;9.93;;;;;;;-141.97;45.05;47572.91;5074485;28;20188;-81
2022/10/29 08:25:12;;;;;;;17.80;10.00;;;;;;;-141.97;44.15;47542.16;5074549;28;20173;-80
2022/10/29 08:27:37;;;;;;;14.70;9.00;;;;;;;-141.97;42.73;47547.91;5074626;28;20180;-80
2022/10/29 08:30:08;;;;;;;15.30;9.63;;;;;;;-141.97;42.20;47553.69;5074501;28;20306;-80
2022/10/29 08:32:34;;;;;;;13.60;8.77;;;;;;;-141.97;41.91;47588.28;5074098;28;20712;-80
2022/10/29 08:35:00;;;;;;;10.63;8.07;;;;;;;-141.97;44.37;47544.06;5056483;28;20259;-80
2022/10/29 08:37:25;;;;;;;18.93;9.17;;;;;;;-141.97;43.32;47570.97;5074588;28;20285;-80
2022/10/29 08:39:51;;;;;;;12.63;7.97;;;;;;;-141.97;42.55;47544.06;5076050;28;20165;-79
2022/10/29 08:42:48;;;;;;;10.67;7.20;;;;;;;-141.97;42.11;47546.00;5075914;28;20188;-81
2022/10/29 08:45:33;;;;;;;12.50;7.47;;;;;;;-141.97;41.30;47534.44;5078029;28;20179;-80
2022/10/29 08:48:19;;;;;;;13.60;8.03;;;;;;;-141.97;40.19;47526.75;5074337;28;20176;-80
2022/10/29 08:50:52;;;;;;;15.70;8.97;;;;;;;-141.97;39.70;47532.53;5079589;28;20173;-80
2022/10/29 08:53:23;;;;;;;14.47;7.77;;;;;;;-141.97;39.96;47526.75;5074886;28;20200;-81
2022/10/29 08:55:49;;;;;;;12.77;7.57;;;;;;;-141.97;40.27;47530.59;5056656;28;20707;-80
2022/10/29 08:58:29;;;;;;;13.47;7.43;;;;;;;-141.97;40.29;47542.16;5074119;28;20224;-79
2022/10/29 09:00:57;;;;;;;13.43;7.47;;;;;;;-141.97;40.15;47530.59;5075368;28;20809;-81
2022/10/29 09:03:25;;;;;;;11.20;7.33;;;;;;;-141.97;38.69;47546.00;5074198;28;20173;-82
2022/10/29 09:06:14;;;;;;;14.73;7.93;;;;;;;-141.97;38.83;47540.22;5073973;28;20157;-80
2022/10/29 09:09:01;;;;;;;9.33;6.13;;;;;;;-141.97;38.31;47536.38;5055282;28;20208;-81
2022/10/29 09:11:44;;;;;;;10.47;6.53;;;;;;;-141.97;37.37;47534.44;5073714;28;20179;-81
2022/10/29 09:14:34;;;;;;;8.60;5.83;;;;;;;-141.97;37.92;47496.00;5073308;28;20717;-80
2022/10/29 09:17:04;;;;;;;8.43;6.20;;;;;;;-141.97;37.31;47549.84;5073173;28;20200;-81
2022/10/29 09:20:00;;;;;;;10.80;5.93;;;;;;;-141.97;37.55;47492.16;5073816;28;20169;-82
2022/10/29 09:22:54;;;;;;;8.17;5.70;;;;;;;-141.97;37.89;47482.56;5072825;28;20203;-80
2022/10/29 09:25:48;;;;;;;8.57;6.20;;;;;;;-141.97;38.70;47526.75;5073502;28;20165;-81
2022/10/29 09:28:25;;;;;;;10.93;6.13;;;;;;;-141.97;38.84;47488.31;5073347;28;20176;-80
2022/10/29 09:31:08;;;;;;;10.13;5.80;;;;;;;-141.97;37.95;47507.53;5073108;28;20177;-80
2022/10/29 09:33:33;;;;;;;11.73;6.70;;;;;;;-141.97;37.38;47515.22;5073298;28;20663;-80
2022/10/29 09:36:00;;;;;;;18.33;6.37;;;;;;;-141.97;37.15;47559.44;5072844;28;20172;-80
2022/10/29 09:38:58;;;;;;;12.73;7.10;;;;;;;-141.97;36.90;47534.44;5055422;28;20200;-80
2022/10/29 09:41:26;;;;;;;12.13;6.03;;;;;;;-141.97;36.12;47492.16;5073134;28;20180;-80
2022/10/29 09:44:16;;;;;;;9.87;6.23;;;;;;;-141.97;35.83;47492.16;5073609;28;20625;-82
2022/10/29 09:46:58;;;;;;;10.43;5.93;;;;;;;-141.97;36.23;47499.84;4992036;28;20266;-81
2022/10/29 09:49:26;;;;;;;10.60;5.87;;;;;;;-141.97;36.40;47534.44;4991304;28;20188;-80
2022/10/29 09:52:13;;;;;;;9.20;5.87;;;;;;;-141.97;35.55;47499.84;4991238;28;20194;-81
2022/10/29 09:54:38;;;;;;;9.57;6.17;;;;;;;-141.97;35.12;47484.47;4975338;28;20286;-82
2022/10/29 09:57:04;;;;;;;12.97;7.00;;;;;;;-141.97;34.58;47486.41;4991674;28;20285;-81
2022/10/29 09:59:50;;;;;;;14.17;8.20;;;;;;;-141.97;34.02;47507.53;4991789;28;20201;-81
2022/10/29 10:02:31;;;;;;;10.27;7.33;;;;;;;-141.97;33.95;47488.31;4991689;28;20179;-81
2022/10/29 10:05:03;;;;;;;9.90;6.43;;;;;;;-141.97;34.47;47490.25;4991572;28;20199;-80
2022/10/29 10:07:29;;;;;;;15.83;8.30;;;;;;;-141.97;34.32;47480.63;4991017;28;20240;-81
2022/10/29 10:09:58;;;;;;;17.23;8.63;;;;;;;-141.97;33.72;47472.94;4990913;28;20620;-79
2022/10/29 10:12:47;;;;;;;10.30;7.10;;;;;;;-141.97;34.27;47497.94;4991285;28;20242;-80
2022/10/29 10:15:15;;;;;;;10.80;6.77;;;;;;;-141.97;34.38;47496.00;4933790;29;20205;-81
2022/10/29 10:18:15;;;;;;;17.13;7.80;;;;;;;-141.97;34.10;47467.19;4933753;29;20221;-80
2022/10/29 10:20:44;;;;;;;10.83;6.90;;;;;;;-141.97;33.80;47507.53;4934490;29;20193;-80
2022/10/29 10:23:40;;;;;;;9.83;6.40;;;;;;;-141.97;33.84;47530.59;4942209;29;20199;-79
2022/10/29 10:26:25;;;;;;;8.83;6.33;;;;;;;-141.97;33.81;47419.13;4956128;29;20429;-80
2022/10/29 10:29:15;;;;;;;9.80;6.30;;;;;;;-141.97;33.26;47494.09;4956078;29;20184;-80
2022/10/29 10:31:43;;;;;;;13.00;7.53;;;;;;;-141.97;32.88;47453.72;4937791;29;20281;-80
2022/10/29 10:34:20;;;;;;;12.90;6.50;;;;;;;-141.97;32.60;47442.19;4936998;29;20251;-80
2022/10/29 10:36:51;;;;;;;9.63;5.53;;;;;;;-141.97;33.05;47474.88;4936873;29;20213;-79
2022/10/29 10:39:23;;;;;;;8.93;6.00;;;;;;;-141.97;33.19;47446.03;4936533;29;20205;-81
2022/10/29 10:41:50;;;;;;;10.77;6.60;;;;;;;-141.97;33.52;47496.00;4936588;29;20181;-81
2022/10/29 10:44:17;;;;;;;9.57;6.23;;;;;;;-141.97;33.07;47484.47;4936989;29;20233;-81
2022/10/29 10:46:43;;;;;;;9.77;6.10;;;;;;;-141.97;33.18;47507.53;4937562;29;20193;-81
2022/10/29 10:49:16;;;;;;;9.67;6.00;;;;;;;-141.97;33.38;47478.72;4938488;29;20581;-81
2022/10/29 10:51:53;;;;;;;8.53;5.67;;;;;;;-141.97;32.88;47465.25;4958376;28;20215;-82
2022/10/29 10:54:30;;;;;;;10.97;5.53;;;;;;;-141.97;32.57;47451.81;4996775;28;20214;-79
2022/10/29 10:57:01;;;;;;;7.00;5.00;;;;;;;-141.97;32.67;47488.31;4994993;28;20210;-81
2022/10/29 10:59:51;;;;;;;10.97;5.60;;;;;;;-141.97;33.03;47484.47;4994252;28;20254;-80
2022/10/29 11:02:43;;;;;;;7.50;4.50;;;;;;;-141.97;32.75;47480.63;4994935;28;20194;-80
2022/10/29 11:05:21;;;;;;;8.27;4.63;;;;;;;-141.97;32.47;47490.25;4937134;29;20297;-81
2022/10/29 11:08:14;;;;;;;6.57;4.93;;;;;;;-141.97;32.74;47488.31;4943125;28;20281;-81
2022/10/29 11:10:44;;;;;;;7.00;5.20;;;;;;;-141.97;32.62;47424.91;4976090;28;20200;-81
2022/10/29 11:13:19;;;;;;;7.97;5.20;;;;;;;-141.97;32.42;47388.38;4975890;28;20172;-80
2022/10/29 11:15:55;;;;;;;6.17;4.77;;;;;;;-141.97;32.33;47509.47;4976099;28;20274;-80
2022/10/29 11:18:29;;;;;;;6.17;4.93;;;;;;;-141.97;32.42;47463.34;4977112;28;20778;-80